createdAt,value
2022-09-27T07:03:41.667Z,12.20
2022-09-27T07:08:50.642Z,12.30
2022-09-27T07:29:50.509Z,12.50
2022-09-27T07:34:44.147Z,12.70
2022-09-27T07:39:39.480Z,12.70
2022-09-27T07:44:33.579Z,12.80
2022-09-27T07:49:51.951Z,12.90
2022-09-27T08:10:12.514Z,13.40
2022-09-27T08:15:07.577Z,13.40
2022-09-27T08:20:04.376Z,13.60
2022-09-27T08:25:24.616Z,13.60
2022-09-27T08:30:35.214Z,13.70
2022-09-27T08:35:30.390Z,13.80
2022-09-27T08:40:31.627Z,14.00
2022-09-27T08:45:33.001Z,14.10
2022-09-27T08:50:29.929Z,14.20
2022-09-27T08:55:37.114Z,14.20
2022-09-27T09:00:34.786Z,14.10
2022-09-27T09:05:31.881Z,14.20
2022-09-27T09:10:58.621Z,14.30
2022-09-27T09:49:37.043Z,13.10
2022-09-27T09:54:35.250Z,13.20
2022-09-27T09:59:37.142Z,13.40
2022-09-27T10:04:35.172Z,13.70
2022-09-27T10:22:39.675Z,13.80
2022-09-27T10:27:47.518Z,13.90
2022-09-27T10:32:45.970Z,14.00
2022-09-27T10:38:25.290Z,14.20
2022-09-27T10:43:30.676Z,14.30
2022-09-27T10:48:37.865Z,14.40
2022-09-27T10:53:36.669Z,14.40
2022-09-27T10:58:39.477Z,14.50
2022-09-27T11:03:47.796Z,14.60
2022-09-27T11:08:43.533Z,14.60
2022-09-27T11:13:42.648Z,14.70
2022-09-27T11:18:49.095Z,14.70
2022-09-27T11:24:04.336Z,14.80
2022-09-27T11:29:05.155Z,14.80
2022-09-27T11:34:31.921Z,14.70
2022-09-27T11:39:41.426Z,14.80
2022-09-27T11:44:48.277Z,14.90
2022-09-27T11:50:14.246Z,15.00
2022-09-27T11:55:25.258Z,15.00
2022-09-27T12:00:22.506Z,15.10
2022-09-27T12:05:35.400Z,15.00
2022-09-27T12:10:34.717Z,15.00
2022-09-27T12:26:13.821Z,14.80
2022-09-27T12:31:29.010Z,14.80
2022-09-27T12:36:29.707Z,14.90
2022-09-27T12:41:28.567Z,15.00
2022-09-27T12:46:53.642Z,15.00
2022-09-27T12:51:52.743Z,15.10
2022-09-27T12:56:58.935Z,15.00
2022-09-27T13:02:14.805Z,15.10
2022-09-27T13:07:24.596Z,15.10
2022-09-27T13:12:23.127Z,15.10
2022-09-27T13:17:50.037Z,15.10
2022-09-27T13:23:59.339Z,15.10
2022-09-27T13:29:03.758Z,15.20
2022-09-27T13:34:04.737Z,15.50
2022-09-27T13:39:23.108Z,15.90
2022-09-27T13:44:57.057Z,16.10
2022-09-27T13:49:53.524Z,15.90
2022-09-27T13:55:02.400Z,15.70
2022-09-27T14:00:04.837Z,15.60
2022-09-27T14:05:19.316Z,15.50
2022-09-27T14:10:17.102Z,15.40
2022-09-27T14:15:22.106Z,15.30
2022-09-27T14:20:32.861Z,15.10
2022-09-27T14:25:27.012Z,15.00
2022-09-27T14:30:24.615Z,15.00
2022-09-27T14:36:13.656Z,14.90
2022-09-27T14:41:10.999Z,14.70
